createdAt,value
2018-12-17T00:01:03.335Z,3.40
2018-12-17T00:03:31.584Z,3.40
2018-12-17T00:05:59.943Z,3.40
2018-12-17T00:08:31.951Z,3.40
2018-12-17T00:10:59.086Z,3.40
2018-12-17T00:13:27.739Z,3.40
2018-12-17T00:15:56.003Z,3.40
2018-12-17T00:18:24.170Z,3.50
2018-12-17T00:20:52.332Z,3.50
2018-12-17T00:23:20.483Z,3.40
2018-12-17T00:25:48.736Z,3.40
2018-12-17T00:28:16.880Z,3.40
2018-12-17T00:30:45.082Z,3.40
2018-12-17T00:33:13.315Z,3.40
2018-12-17T00:35:41.512Z,3.40
2018-12-17T00:38:09.855Z,3.40
2018-12-17T00:40:38.025Z,3.40
2018-12-17T00:43:06.187Z,3.40
2018-12-17T00:45:34.335Z,3.40
2018-12-17T00:48:02.492Z,3.50
2018-12-17T00:50:30.699Z,3.50
2018-12-17T00:52:58.873Z,3.50
2018-12-17T00:55:27.128Z,3.40
2018-12-17T00:57:55.404Z,3.40
2018-12-17T01:00:23.638Z,3.50
2018-12-17T01:02:51.894Z,3.40
2018-12-17T01:05:20.119Z,3.50
2018-12-17T01:07:48.744Z,3.50
2018-12-17T01:10:16.908Z,3.50
2018-12-17T01:12:45.070Z,3.40
2018-12-17T01:15:13.251Z,3.50
2018-12-17T01:17:41.491Z,3.50
2018-12-17T01:20:09.783Z,3.50
2018-12-17T01:22:37.983Z,3.60
2018-12-17T01:25:06.362Z,3.60
2018-12-17T01:27:34.535Z,3.60
2018-12-17T01:30:02.855Z,3.60
2018-12-17T01:32:31.147Z,3.50
2018-12-17T01:34:59.303Z,3.50
2018-12-17T01:37:27.519Z,3.50
2018-12-17T01:39:55.763Z,3.40
2018-12-17T01:42:23.903Z,3.40
2018-12-17T01:44:52.083Z,3.40
2018-12-17T01:47:20.352Z,3.30
2018-12-17T01:49:48.539Z,3.30
2018-12-17T01:52:16.711Z,3.20
2018-12-17T01:54:44.908Z,3.20
2018-12-17T01:57:13.063Z,3.20
2018-12-17T01:59:41.203Z,3.20
2018-12-17T02:02:09.403Z,3.20
2018-12-17T02:04:37.687Z,3.30
2018-12-17T02:07:05.835Z,3.20
2018-12-17T02:09:34.027Z,3.20
2018-12-17T02:12:02.236Z,3.20
2018-12-17T02:14:30.467Z,3.20
2018-12-17T02:16:58.642Z,3.20
2018-12-17T02:19:26.916Z,3.20
2018-12-17T02:21:55.248Z,3.30
2018-12-17T02:24:23.444Z,3.30
2018-12-17T02:26:51.637Z,3.30
2018-12-17T02:29:19.867Z,3.30
2018-12-17T02:31:48.107Z,3.30
2018-12-17T02:34:16.324Z,3.20
2018-12-17T02:36:44.564Z,3.20
2018-12-17T02:39:12.768Z,3.20
2018-12-17T02:41:40.956Z,3.30
2018-12-17T02:44:09.695Z,3.30
2018-12-17T02:46:37.840Z,3.20
2018-12-17T02:49:06.064Z,3.20
2018-12-17T02:51:35.963Z,3.20
2018-12-17T02:54:04.182Z,3.30
2018-12-17T02:56:32.411Z,3.20
2018-12-17T02:59:00.563Z,3.30
2018-12-17T03:01:28.804Z,3.30
2018-12-17T03:03:57.040Z,3.30
2018-12-17T03:06:25.207Z,3.20
2018-12-17T03:08:53.363Z,3.20
2018-12-17T03:11:21.628Z,3.30
2018-12-17T03:13:50.101Z,3.30
2018-12-17T03:16:18.383Z,3.30
2018-12-17T03:18:46.627Z,3.30
2018-12-17T03:21:14.779Z,3.30
2018-12-17T03:23:42.939Z,3.40
2018-12-17T03:26:11.123Z,3.30
2018-12-17T03:28:39.267Z,3.40
2018-12-17T03:31:07.485Z,3.40
2018-12-17T03:33:36.033Z,3.30
2018-12-17T03:36:04.350Z,3.20
2018-12-17T03:38:32.556Z,3.20
2018-12-17T03:41:01.004Z,3.20
2018-12-17T03:43:29.163Z,3.20
2018-12-17T03:45:57.371Z,3.20
2018-12-17T03:48:25.904Z,3.20
2018-12-17T03:50:54.076Z,3.30
2018-12-17T03:53:22.487Z,3.30
2018-12-17T03:55:50.659Z,3.20
2018-12-17T03:58:18.791Z,3.30
2018-12-17T04:00:46.964Z,3.30
2018-12-17T04:03:15.507Z,3.30
2018-12-17T04:05:43.744Z,3.30
2018-12-17T04:08:11.920Z,3.30
2018-12-17T04:10:40.122Z,3.30
2018-12-17T04:13:08.315Z,3.30
2018-12-17T04:15:36.672Z,3.30
2018-12-17T04:18:04.899Z,3.40
2018-12-17T04:20:33.086Z,3.40
2018-12-17T04:23:01.348Z,3.40
2018-12-17T04:25:29.556Z,3.40
2018-12-17T04:27:57.699Z,3.40
2018-12-17T04:30:25.905Z,3.40
2018-12-17T04:32:54.157Z,3.40
2018-12-17T04:35:22.286Z,3.50
2018-12-17T04:37:50.508Z,3.50
2018-12-17T04:40:18.700Z,3.50
2018-12-17T04:42:46.868Z,3.50
2018-12-17T04:45:15.004Z,3.50
2018-12-17T04:47:43.175Z,3.60
2018-12-17T04:50:11.370Z,3.60
2018-12-17T04:52:39.531Z,3.50
2018-12-17T04:55:07.883Z,3.50
2018-12-17T04:57:36.535Z,3.40
2018-12-17T05:00:05.707Z,3.40
2018-12-17T05:02:33.991Z,3.30
2018-12-17T05:05:02.205Z,3.30
2018-12-17T05:07:30.423Z,3.30
2018-12-17T05:09:58.660Z,3.30
2018-12-17T05:12:26.802Z,3.30
2018-12-17T05:14:54.963Z,3.30
2018-12-17T05:17:23.212Z,3.20
2018-12-17T05:19:51.479Z,3.30
2018-12-17T05:22:19.651Z,3.30
2018-12-17T05:24:47.919Z,3.20
2018-12-17T05:27:16.067Z,3.20
2018-12-17T05:29:44.205Z,3.20
2018-12-17T05:32:12.349Z,3.20
2018-12-17T05:34:40.620Z,3.20
2018-12-17T05:37:08.799Z,3.20
2018-12-17T05:39:37.022Z,3.30
2018-12-17T05:42:05.367Z,3.30
2018-12-17T05:44:33.792Z,3.30
2018-12-17T05:47:01.964Z,3.30
2018-12-17T05:49:30.151Z,3.30
2018-12-17T05:51:58.320Z,3.30
2018-12-17T05:54:26.436Z,3.30
2018-12-17T05:56:54.585Z,3.30
2018-12-17T05:59:28.544Z,3.30
2018-12-17T06:01:52.935Z,3.40
2018-12-17T06:04:21.051Z,3.30
2018-12-17T06:06:49.276Z,3.30
2018-12-17T06:09:17.917Z,3.30
2018-12-17T06:11:46.317Z,3.30
2018-12-17T06:14:14.568Z,3.30
2018-12-17T06:16:42.871Z,3.30
2018-12-17T06:19:11.043Z,3.20
2018-12-17T06:21:39.408Z,3.20
2018-12-17T06:24:07.560Z,3.20
2018-12-17T06:26:35.715Z,3.20
2018-12-17T06:29:03.923Z,3.20
2018-12-17T06:31:32.119Z,3.20
2018-12-17T06:34:00.375Z,3.20
2018-12-17T06:36:28.539Z,3.10
2018-12-17T06:38:56.806Z,3.20
2018-12-17T06:41:24.975Z,3.20
2018-12-17T06:43:53.219Z,3.10
2018-12-17T06:46:21.401Z,3.10
2018-12-17T06:48:49.541Z,3.10
2018-12-17T06:51:19.095Z,3.10
2018-12-17T06:53:47.276Z,3.10
2018-12-17T06:56:15.433Z,3.20
2018-12-17T06:58:43.655Z,3.20
2018-12-17T07:01:11.786Z,3.30
2018-12-17T07:03:40.158Z,3.30
2018-12-17T07:06:08.679Z,3.30
2018-12-17T07:08:36.823Z,3.40
2018-12-17T07:11:06.456Z,3.40
2018-12-17T07:13:34.887Z,3.40
2018-12-17T07:16:03.083Z,3.50
2018-12-17T07:18:31.315Z,3.50
2018-12-17T07:20:59.648Z,3.60
2018-12-17T07:23:27.903Z,3.60
2018-12-17T07:25:56.107Z,3.60
2018-12-17T07:28:24.440Z,3.60
2018-12-17T07:30:52.724Z,3.60
2018-12-17T07:33:20.860Z,3.60
2018-12-17T07:35:49.063Z,3.60
2018-12-17T07:38:17.264Z,3.60
2018-12-17T07:40:45.546Z,3.60
2018-12-17T07:43:13.667Z,3.60
2018-12-17T07:45:41.827Z,3.60
2018-12-17T07:48:10.019Z,3.60
2018-12-17T07:50:38.215Z,3.60
2018-12-17T07:53:06.444Z,3.70
2018-12-17T07:55:34.615Z,3.60
2018-12-17T07:58:02.871Z,3.60
2018-12-17T08:00:31.129Z,3.60
2018-12-17T08:02:59.285Z,3.60
2018-12-17T08:05:27.448Z,3.70
2018-12-17T08:07:55.651Z,3.70
2018-12-17T08:10:23.818Z,3.60
2018-12-17T08:12:51.987Z,3.60
2018-12-17T08:15:20.187Z,3.70
2018-12-17T08:17:50.347Z,3.70
2018-12-17T08:20:18.525Z,3.70
2018-12-17T08:22:46.727Z,3.70
2018-12-17T08:25:14.979Z,3.70
2018-12-17T08:27:43.143Z,3.70
2018-12-17T08:30:11.299Z,3.70
2018-12-17T08:32:39.447Z,3.70
2018-12-17T08:35:07.803Z,3.70
2018-12-17T08:37:35.923Z,3.70
2018-12-17T08:40:04.375Z,3.70
2018-12-17T08:42:32.519Z,3.80
2018-12-17T08:45:00.807Z,3.80
2018-12-17T08:47:28.988Z,3.80
2018-12-17T08:49:57.208Z,3.80
2018-12-17T08:52:25.451Z,3.80
2018-12-17T08:54:54.107Z,3.70
2018-12-17T08:57:22.267Z,3.70
2018-12-17T08:59:50.504Z,3.70
2018-12-17T09:02:18.708Z,3.70
2018-12-17T09:04:46.851Z,3.70
2018-12-17T09:07:14.998Z,3.70
2018-12-17T09:09:43.271Z,3.70
2018-12-17T09:12:11.444Z,3.70
2018-12-17T09:14:39.617Z,3.70
2018-12-17T09:17:07.782Z,3.70
2018-12-17T09:19:35.947Z,3.70
2018-12-17T09:22:04.212Z,3.70
2018-12-17T09:24:32.407Z,3.70
2018-12-17T09:27:00.603Z,3.70
2018-12-17T09:29:28.881Z,3.80
2018-12-17T09:31:57.067Z,3.70
2018-12-17T09:34:25.388Z,3.80
2018-12-17T09:36:53.747Z,3.90
2018-12-17T09:39:21.904Z,3.80
2018-12-17T09:41:50.160Z,3.80
2018-12-17T09:44:18.279Z,3.80
2018-12-17T09:46:46.571Z,3.80
2018-12-17T09:49:14.891Z,3.80
2018-12-17T09:51:43.059Z,3.80
2018-12-17T09:54:11.179Z,3.80
2018-12-17T09:56:39.379Z,3.80
2018-12-17T09:59:07.531Z,3.80
2018-12-17T10:01:35.683Z,3.80
2018-12-17T10:04:03.851Z,3.70
2018-12-17T10:06:32.070Z,3.70
2018-12-17T10:09:01.166Z,3.80
2018-12-17T10:11:29.399Z,3.80
2018-12-17T10:13:57.586Z,3.70
2018-12-17T10:16:25.720Z,3.80
2018-12-17T10:18:53.849Z,3.80
2018-12-17T10:21:22.083Z,3.80
2018-12-17T10:23:50.432Z,3.80
2018-12-17T10:26:18.747Z,3.80
2018-12-17T10:28:47.176Z,3.80
2018-12-17T10:31:15.279Z,3.80
2018-12-17T10:33:43.416Z,3.90
2018-12-17T10:36:11.596Z,3.90
2018-12-17T10:38:39.805Z,3.90
2018-12-17T10:41:08.013Z,3.90
2018-12-17T10:43:36.219Z,3.90
2018-12-17T10:46:04.456Z,4.20
2018-12-17T10:48:32.627Z,4.30
2018-12-17T10:51:00.775Z,4.30
2018-12-17T10:53:28.975Z,4.30
2018-12-17T10:55:57.151Z,4.30
2018-12-17T10:58:25.364Z,4.30
2018-12-17T11:00:59.025Z,4.30
2018-12-17T11:03:43.027Z,4.30
2018-12-17T11:06:16.142Z,4.30
2018-12-17T11:08:44.799Z,4.40
2018-12-17T11:11:13.022Z,4.40
2018-12-17T11:13:41.284Z,4.50
2018-12-17T11:16:09.484Z,4.50
2018-12-17T11:18:37.674Z,4.50
2018-12-17T11:21:05.915Z,4.50
2018-12-17T11:23:34.083Z,4.50
2018-12-17T11:26:02.293Z,4.60
2018-12-17T11:28:30.431Z,4.60
2018-12-17T11:30:58.679Z,4.60
2018-12-17T11:33:26.824Z,4.60
2018-12-17T11:35:55.024Z,4.70
2018-12-17T11:38:23.791Z,4.70
2018-12-17T11:40:51.964Z,4.70
2018-12-17T11:43:20.224Z,4.70
2018-12-17T11:45:48.619Z,4.70
2018-12-17T11:48:17.107Z,4.70
2018-12-17T11:50:45.535Z,4.70
2018-12-17T11:53:13.706Z,4.80
2018-12-17T11:55:41.923Z,2.70
2018-12-17T11:58:14.274Z,4.70
2018-12-17T12:00:53.800Z,4.70
2018-12-17T12:03:18.611Z,4.80
2018-12-17T12:05:46.899Z,4.80
2018-12-17T12:08:15.247Z,4.80
2018-12-17T12:10:43.397Z,4.90
2018-12-17T12:13:11.621Z,4.90
2018-12-17T12:15:39.768Z,5.00
2018-12-17T12:18:08.018Z,5.00
2018-12-17T12:20:36.203Z,5.10
2018-12-17T12:23:04.399Z,5.10
2018-12-17T12:25:32.567Z,5.20
2018-12-17T12:28:00.780Z,5.30
2018-12-17T12:30:29.073Z,5.20
2018-12-17T12:32:57.199Z,5.20
2018-12-17T12:35:25.376Z,5.30
2018-12-17T12:37:54.071Z,5.30
2018-12-17T12:40:22.296Z,5.40
2018-12-17T12:42:51.785Z,5.40
2018-12-17T12:45:20.413Z,5.50
2018-12-17T12:47:48.569Z,5.50
2018-12-17T12:50:16.718Z,5.50
2018-12-17T12:52:44.893Z,5.50
2018-12-17T12:55:13.059Z,5.60
2018-12-17T12:57:41.215Z,5.60
2018-12-17T13:00:12.948Z,5.60
2018-12-17T13:02:41.217Z,5.60
2018-12-17T13:05:09.841Z,5.60
2018-12-17T13:07:38.116Z,5.70
2018-12-17T13:10:09.402Z,5.70
2018-12-17T13:12:37.769Z,5.70
2018-12-17T13:15:07.639Z,5.90
2018-12-17T13:17:35.883Z,6.10
2018-12-17T13:20:05.223Z,6.30
2018-12-17T13:22:33.387Z,6.40
2018-12-17T13:25:01.573Z,6.50
2018-12-17T13:27:29.839Z,6.50
2018-12-17T13:29:57.980Z,6.50
2018-12-17T13:32:26.299Z,6.50
2018-12-17T13:34:54.499Z,6.40
2018-12-17T13:37:22.686Z,6.40
2018-12-17T13:39:50.828Z,6.40
2018-12-17T13:42:19.098Z,6.40
2018-12-17T13:44:47.772Z,6.40
2018-12-17T13:47:15.952Z,6.50
2018-12-17T13:49:44.083Z,6.40
2018-12-17T13:52:17.591Z,6.40
2018-12-17T13:54:45.747Z,6.40
2018-12-17T13:57:13.936Z,6.40
2018-12-17T13:59:42.110Z,6.40
2018-12-17T14:02:10.516Z,6.40
2018-12-17T14:04:38.668Z,6.40
2018-12-17T14:07:06.995Z,6.40
2018-12-17T14:09:39.415Z,6.40
2018-12-17T14:12:07.607Z,6.40
2018-12-17T14:14:35.860Z,6.40
2018-12-17T14:17:09.599Z,6.50
2018-12-17T14:19:40.001Z,6.50
2018-12-17T14:22:08.167Z,6.50
2018-12-17T14:24:36.371Z,6.60
2018-12-17T14:27:04.591Z,6.70
2018-12-17T14:29:32.815Z,6.80
2018-12-17T14:32:00.956Z,7.00
2018-12-17T14:34:29.242Z,7.10
2018-12-17T14:36:57.430Z,7.10
2018-12-17T14:39:25.695Z,7.10
2018-12-17T14:41:53.831Z,7.20
2018-12-17T14:44:27.191Z,7.20
2018-12-17T14:46:58.639Z,7.20
2018-12-17T14:49:27.123Z,7.20
2018-12-17T14:51:55.351Z,7.10
2018-12-17T14:54:24.001Z,7.00
2018-12-17T14:56:52.731Z,6.90
2018-12-17T14:59:20.928Z,6.90
2018-12-17T15:01:49.032Z,6.80
2018-12-17T15:04:17.227Z,6.90
2018-12-17T15:06:45.432Z,7.00
2018-12-17T15:09:13.587Z,6.90
2018-12-17T15:11:41.759Z,6.80
2018-12-17T15:14:10.044Z,6.80
2018-12-17T15:16:38.283Z,6.80
2018-12-17T15:19:06.427Z,6.80
2018-12-17T15:21:34.628Z,6.70
2018-12-17T15:24:02.773Z,6.70
2018-12-17T15:26:31.041Z,6.80
2018-12-17T15:28:59.194Z,6.70
2018-12-17T15:31:27.420Z,6.70
2018-12-17T15:33:55.725Z,6.70
2018-12-17T15:36:23.912Z,6.70
2018-12-17T15:38:52.103Z,6.70
2018-12-17T15:41:20.266Z,6.70
2018-12-17T15:43:48.429Z,6.60
2018-12-17T15:46:16.623Z,6.60
2018-12-17T15:48:44.770Z,6.60
2018-12-17T15:51:13.095Z,6.60
2018-12-17T15:53:41.239Z,6.50
2018-12-17T15:56:09.417Z,6.50
2018-12-17T15:58:37.607Z,6.50
2018-12-17T16:01:05.875Z,6.40
2018-12-17T16:03:34.082Z,6.40
2018-12-17T16:06:03.239Z,6.40
2018-12-17T16:08:31.439Z,6.40
2018-12-17T16:10:59.656Z,6.40
2018-12-17T16:13:27.772Z,6.30
2018-12-17T16:15:56.011Z,6.30
2018-12-17T16:18:24.135Z,6.30
2018-12-17T16:20:52.291Z,6.30
2018-12-17T16:23:20.583Z,6.30
2018-12-17T16:25:48.835Z,6.30
2018-12-17T16:28:22.448Z,6.20
2018-12-17T16:30:50.699Z,6.20
2018-12-17T16:33:18.891Z,6.20
2018-12-17T16:35:46.362Z,6.10
2018-12-17T16:38:13.826Z,6.10
2018-12-17T16:40:41.971Z,6.20
2018-12-17T16:43:10.096Z,6.20
2018-12-17T16:45:37.587Z,6.10
2018-12-17T16:48:05.947Z,6.00
2018-12-17T16:50:34.124Z,6.10
2018-12-17T16:53:02.439Z,6.00
2018-12-17T16:55:30.583Z,6.10
2018-12-17T16:57:58.795Z,6.10
2018-12-17T17:00:26.967Z,6.10
2018-12-17T17:02:55.120Z,6.10
2018-12-17T17:05:23.506Z,6.10
2018-12-17T17:07:51.693Z,6.10
2018-12-17T17:10:20.041Z,6.00
2018-12-17T17:12:48.232Z,6.00
2018-12-17T17:15:15.766Z,6.00
2018-12-17T17:17:43.916Z,6.00
2018-12-17T17:20:12.732Z,6.00
2018-12-17T17:22:40.859Z,6.00
2018-12-17T17:25:09.065Z,6.00
2018-12-17T17:27:37.215Z,6.00
2018-12-17T17:30:06.167Z,6.00
2018-12-17T17:32:34.535Z,5.90
2018-12-17T17:35:02.752Z,5.90
2018-12-17T17:37:30.883Z,5.90
2018-12-17T17:39:59.155Z,5.90
2018-12-17T17:42:27.340Z,5.80
2018-12-17T17:44:55.510Z,5.80
2018-12-17T17:47:23.787Z,5.70
2018-12-17T17:49:51.984Z,5.70
2018-12-17T17:52:20.211Z,5.70
2018-12-17T17:54:48.390Z,5.60
2018-12-17T17:57:16.853Z,5.60
2018-12-17T17:59:45.406Z,5.60
2018-12-17T18:02:18.752Z,5.60
2018-12-17T18:04:43.663Z,5.60
2018-12-17T18:07:12.211Z,5.60
2018-12-17T18:09:40.412Z,5.60
2018-12-17T18:12:08.635Z,5.50
2018-12-17T18:14:36.750Z,5.60
2018-12-17T18:17:04.904Z,5.60
2018-12-17T18:19:33.097Z,5.60
2018-12-17T18:22:01.376Z,5.60
2018-12-17T18:24:29.615Z,5.50
2018-12-17T18:26:57.848Z,5.50
2018-12-17T18:29:26.071Z,5.50
2018-12-17T18:31:54.526Z,5.40
2018-12-17T18:34:22.771Z,5.30
2018-12-17T18:36:50.939Z,5.30
2018-12-17T18:39:19.743Z,5.30
2018-12-17T18:41:47.926Z,5.30
2018-12-17T18:44:16.060Z,5.40
2018-12-17T18:46:44.356Z,5.40
2018-12-17T18:49:12.621Z,5.30
2018-12-17T18:51:40.993Z,5.30
2018-12-17T18:54:09.146Z,5.30
2018-12-17T18:56:37.301Z,5.30
2018-12-17T18:59:05.751Z,5.20
2018-12-17T19:01:33.915Z,5.20
2018-12-17T19:04:02.291Z,5.20
2018-12-17T19:06:30.486Z,5.10
2018-12-17T19:08:58.827Z,5.10
2018-12-17T19:11:26.967Z,5.10
2018-12-17T19:13:55.158Z,5.10
2018-12-17T19:16:23.316Z,5.10
2018-12-17T19:18:51.471Z,5.10
2018-12-17T19:21:19.779Z,5.00
2018-12-17T19:23:48.177Z,5.00
2018-12-17T19:26:16.320Z,5.00
2018-12-17T19:28:44.455Z,4.90
2018-12-17T19:31:12.596Z,4.90
2018-12-17T19:33:40.756Z,4.80
2018-12-17T19:36:08.913Z,4.70
2018-12-17T19:38:37.044Z,4.70
2018-12-17T19:41:05.303Z,4.70
2018-12-17T19:43:33.447Z,4.60
2018-12-17T19:46:01.641Z,4.60
2018-12-17T19:48:29.931Z,4.70
2018-12-17T19:50:58.180Z,4.70
2018-12-17T19:53:26.415Z,4.70
2018-12-17T19:55:54.595Z,4.80
2018-12-17T19:58:22.046Z,4.80
2018-12-17T20:00:49.564Z,4.80
2018-12-17T20:03:18.013Z,4.80
2018-12-17T20:05:46.323Z,4.80
2018-12-17T20:08:14.475Z,4.90
2018-12-17T20:10:42.614Z,4.90
2018-12-17T20:13:10.860Z,4.90
2018-12-17T20:15:39.211Z,4.90
2018-12-17T20:18:07.455Z,4.90
2018-12-17T20:20:36.334Z,4.90
2018-12-17T20:23:04.559Z,4.90
2018-12-17T20:25:32.975Z,4.90
2018-12-17T20:28:01.157Z,5.00
2018-12-17T20:30:29.423Z,5.00
2018-12-17T20:32:57.700Z,5.10
2018-12-17T20:35:26.043Z,5.10
2018-12-17T20:37:54.183Z,5.00
2018-12-17T20:40:22.382Z,5.00
2018-12-17T20:42:50.829Z,4.90
2018-12-17T20:45:19.110Z,4.80
2018-12-17T20:47:47.271Z,4.70
2018-12-17T20:50:15.453Z,4.70
2018-12-17T20:52:43.791Z,4.60
2018-12-17T20:55:12.099Z,4.60
2018-12-17T20:57:41.331Z,4.50
2018-12-17T21:00:09.668Z,4.60
2018-12-17T21:02:37.811Z,4.60
2018-12-17T21:05:06.461Z,4.60
2018-12-17T21:07:34.757Z,4.70
2018-12-17T21:10:03.028Z,4.70
2018-12-17T21:12:31.259Z,4.80
2018-12-17T21:14:59.456Z,4.80
2018-12-17T21:17:27.615Z,4.80
2018-12-17T21:19:55.085Z,4.90
2018-12-17T21:22:23.263Z,4.90
2018-12-17T21:24:51.437Z,4.90
2018-12-17T21:27:19.655Z,4.90
2018-12-17T21:29:47.786Z,5.00
2018-12-17T21:32:15.943Z,5.00
2018-12-17T21:34:44.142Z,5.00
2018-12-17T21:37:12.420Z,5.00
2018-12-17T21:39:40.567Z,5.10
2018-12-17T21:42:10.036Z,5.10
2018-12-17T21:44:38.286Z,5.10
2018-12-17T21:47:06.476Z,5.10
2018-12-17T21:49:34.022Z,5.20
2018-12-17T21:52:01.557Z,5.20
2018-12-17T21:54:29.891Z,5.20
2018-12-17T21:56:57.355Z,5.20
2018-12-17T21:59:25.531Z,5.20
2018-12-17T22:01:53.900Z,5.30
2018-12-17T22:04:22.099Z,5.30
2018-12-17T22:06:49.576Z,5.30
2018-12-17T22:09:17.800Z,5.30
2018-12-17T22:11:45.447Z,5.20
2018-12-17T22:14:13.772Z,5.30
2018-12-17T22:16:41.949Z,5.30
2018-12-17T22:19:10.103Z,5.30
2018-12-17T22:21:38.239Z,5.30
2018-12-17T22:24:06.401Z,5.30
2018-12-17T22:26:34.599Z,5.30
2018-12-17T22:29:02.747Z,5.40
2018-12-17T22:31:30.911Z,5.40
2018-12-17T22:33:59.158Z,5.30
2018-12-17T22:36:27.347Z,5.30
2018-12-17T22:38:55.507Z,5.30
2018-12-17T22:41:23.694Z,5.20
2018-12-17T22:43:51.817Z,5.20
2018-12-17T22:46:19.959Z,5.20
2018-12-17T22:48:48.111Z,5.20
2018-12-17T22:51:16.267Z,5.30
2018-12-17T22:53:44.466Z,5.30
2018-12-17T22:56:12.731Z,5.40
2018-12-17T22:58:42.564Z,5.40
2018-12-17T23:01:11.030Z,5.40
2018-12-17T23:03:39.225Z,5.50
2018-12-17T23:06:07.485Z,5.50
2018-12-17T23:08:37.155Z,5.50
2018-12-17T23:11:16.535Z,5.50
2018-12-17T23:13:56.143Z,5.50
2018-12-17T23:16:35.679Z,5.50
2018-12-17T23:19:02.922Z,5.50
2018-12-17T23:21:31.340Z,5.50
2018-12-17T23:23:59.608Z,5.50
2018-12-17T23:26:27.768Z,5.40
2018-12-17T23:28:55.980Z,5.50
2018-12-17T23:31:24.312Z,5.40
2018-12-17T23:33:52.527Z,5.40
2018-12-17T23:36:20.759Z,5.30
2018-12-17T23:38:48.907Z,5.30
2018-12-17T23:41:17.031Z,5.30
2018-12-17T23:43:45.375Z,5.30
2018-12-17T23:46:13.651Z,5.30
2018-12-17T23:48:41.831Z,5.30
2018-12-17T23:51:10.222Z,5.40
2018-12-17T23:53:38.346Z,5.40
2018-12-17T23:56:06.571Z,5.40
2018-12-17T23:58:34.752Z,5.50
